createdAt,value
2022-12-03T05:14:35.002Z,8.32
2022-12-03T05:17:01.494Z,8.40
2022-12-03T05:19:47.887Z,8.23
2022-12-03T05:22:14.232Z,7.40
2022-12-03T05:24:40.581Z,8.43
2022-12-03T05:27:06.928Z,8.80
2022-12-03T05:29:33.329Z,8.60
2022-12-03T05:31:59.708Z,8.20
2022-12-03T05:34:26.270Z,8.38
2022-12-03T05:36:52.624Z,8.18
2022-12-03T05:39:19.122Z,8.50
2022-12-03T05:42:04.034Z,8.70
2022-12-03T05:44:30.422Z,8.25
2022-12-03T05:46:56.747Z,8.68
2022-12-03T05:49:23.129Z,8.38
2022-12-03T05:51:52.542Z,7.68
2022-12-03T05:54:23.284Z,8.30
2022-12-03T05:56:49.632Z,9.02
2022-12-03T05:59:15.977Z,8.73
2022-12-03T06:01:42.333Z,8.27
2022-12-03T06:04:08.796Z,8.43
2022-12-03T06:06:35.217Z,8.32
2022-12-03T06:09:01.726Z,8.10
2022-12-03T06:11:29.917Z,8.52
2022-12-03T06:13:56.350Z,8.48
2022-12-03T06:16:22.817Z,7.65
2022-12-03T06:18:49.242Z,8.32
2022-12-03T06:21:15.582Z,8.30
2022-12-03T06:23:44.651Z,8.05
2022-12-03T06:26:12.034Z,7.75
2022-12-03T06:28:38.408Z,7.63
2022-12-03T06:31:04.942Z,7.63
2022-12-03T06:33:31.423Z,7.78
2022-12-03T06:35:57.837Z,7.90
2022-12-03T06:38:24.225Z,8.27
2022-12-03T06:40:50.573Z,7.85
2022-12-03T06:43:16.934Z,8.00
2022-12-03T06:45:47.681Z,8.00
2022-12-03T06:48:14.550Z,7.63
2022-12-03T06:50:40.981Z,7.80
2022-12-03T06:53:07.341Z,7.63
2022-12-03T06:55:33.737Z,8.13
2022-12-03T06:58:00.143Z,8.05
2022-12-03T07:00:26.544Z,7.70
2022-12-03T07:02:52.940Z,7.70
2022-12-03T07:05:19.950Z,8.05
2022-12-03T07:07:51.988Z,8.00
2022-12-03T07:10:18.973Z,7.82
2022-12-03T07:12:45.312Z,7.90
2022-12-03T07:15:11.764Z,8.30
2022-12-03T07:17:38.142Z,8.60
2022-12-03T07:20:04.896Z,7.97
2022-12-03T07:22:31.242Z,9.23
2022-12-03T07:24:57.604Z,8.77
2022-12-03T07:27:24.049Z,7.70
2022-12-03T07:29:50.402Z,7.60
2022-12-03T07:32:16.759Z,8.27
2022-12-03T07:34:43.126Z,9.05
2022-12-03T07:37:09.488Z,8.40
2022-12-03T07:39:35.919Z,8.85
2022-12-03T07:42:02.448Z,9.48
2022-12-03T07:44:31.303Z,9.20
2022-12-03T07:46:58.246Z,9.13
2022-12-03T07:49:24.941Z,8.52
2022-12-03T07:51:54.553Z,9.13
2022-12-03T07:54:21.571Z,8.98
2022-12-03T07:56:50.933Z,8.60
2022-12-03T07:59:17.720Z,9.18
2022-12-03T08:01:44.451Z,8.82
2022-12-03T08:04:12.885Z,9.30
2022-12-03T08:06:39.251Z,8.57
2022-12-03T08:09:05.609Z,9.18
2022-12-03T08:11:32.857Z,9.68
2022-12-03T08:13:59.352Z,8.52
2022-12-03T08:16:25.913Z,9.00
2022-12-03T08:18:54.114Z,9.07
2022-12-03T08:21:21.403Z,8.82
2022-12-03T08:23:47.989Z,9.18
2022-12-03T08:26:20.153Z,8.88
2022-12-03T08:28:46.549Z,8.70
2022-12-03T08:31:19.639Z,10.27
2022-12-03T08:33:59.578Z,8.27
2022-12-03T08:36:29.236Z,8.93
2022-12-03T08:38:57.021Z,9.43
2022-12-03T08:41:42.664Z,9.85
2022-12-03T08:44:25.724Z,10.00
2022-12-03T08:47:10.545Z,8.65
2022-12-03T08:49:37.005Z,9.30
2022-12-03T08:52:10.401Z,9.05
2022-12-03T08:54:36.872Z,9.38
2022-12-03T08:57:16.763Z,8.75
2022-12-03T08:59:45.639Z,8.32
2022-12-03T09:02:18.601Z,8.32
2022-12-03T09:04:46.194Z,8.70
2022-12-03T09:07:12.681Z,9.68
2022-12-03T09:09:39.085Z,8.27
2022-12-03T09:12:05.585Z,8.93
2022-12-03T09:14:31.971Z,16.83
2022-12-03T09:16:58.535Z,18.92
2022-12-03T09:19:25.929Z,16.27
2022-12-03T09:21:52.960Z,24.23
2022-12-03T09:24:19.730Z,12.55
2022-12-03T09:26:46.295Z,10.85
2022-12-03T09:29:13.071Z,14.25
2022-12-03T09:31:39.812Z,13.82
2022-12-03T09:47:34.474Z,24.40
2022-12-03T09:50:00.961Z,14.70
2022-12-03T09:52:29.134Z,14.43
2022-12-03T09:54:55.754Z,11.77
2022-12-03T09:57:22.285Z,11.43
2022-12-03T09:59:48.662Z,11.00
2022-12-03T10:02:35.246Z,9.30
2022-12-03T10:05:01.758Z,8.88
2022-12-03T10:07:28.189Z,10.30
2022-12-03T10:09:54.944Z,10.10
2022-12-03T10:12:23.072Z,10.52
2022-12-03T10:14:49.580Z,10.32
2022-12-03T10:17:16.905Z,10.48
2022-12-03T10:19:44.583Z,10.30
2022-12-03T10:22:10.931Z,9.15
2022-12-03T10:24:37.876Z,12.30
2022-12-03T10:27:20.902Z,9.95
2022-12-03T10:29:55.941Z,11.15
2022-12-03T10:32:28.299Z,10.68
2022-12-03T10:35:15.001Z,13.88
2022-12-03T10:38:07.693Z,13.60
2022-12-03T10:40:35.286Z,11.02
2022-12-03T10:43:20.209Z,9.00
2022-12-03T10:45:50.389Z,9.45
